sensor_id;sensor_type;location;lat;lon;timestamp;P1;durP1;ratioP1;P2;durP2;ratioP2
73823;SDS011;62154;54.914;73.444;2022-12-10T00:01:39;40.63;;;12.48;;
73823;SDS011;62154;54.914;73.444;2022-12-10T00:04:09;40.10;;;12.73;;
73823;SDS011;62154;54.914;73.444;2022-12-10T00:06:39;39.15;;;11.38;;
73823;SDS011;62154;54.914;73.444;2022-12-10T00:09:14;34.88;;;11.75;;
73823;SDS011;62154;54.914;73.444;2022-12-10T00:11:43;34.42;;;13.35;;
73823;SDS011;62154;54.914;73.444;2022-12-10T00:14:11;33.88;;;12.75;;
73823;SDS011;62154;54.914;73.444;2022-12-10T00:16:39;33.70;;;12.45;;
73823;SDS011;62154;54.914;73.444;2022-12-10T00:19:08;36.30;;;12.07;;
73823;SDS011;62154;54.914;73.444;2022-12-10T00:21:35;39.25;;;14.10;;
73823;SDS011;62154;54.914;73.444;2022-12-10T00:24:09;46.05;;;17.55;;
73823;SDS011;62154;54.914;73.444;2022-12-10T00:26:37;45.72;;;17.80;;
73823;SDS011;62154;54.914;73.444;2022-12-10T00:29:11;35.45;;;14.68;;
73823;SDS011;62154;54.914;73.444;2022-12-10T00:31:39;64.05;;;21.67;;
73823;SDS011;62154;54.914;73.444;2022-12-10T00:34:08;46.60;;;17.20;;
73823;SDS011;62154;54.914;73.444;2022-12-10T00:36:38;42.92;;;13.77;;
73823;SDS011;62154;54.914;73.444;2022-12-10T00:39:08;39.53;;;12.85;;
73823;SDS011;62154;54.914;73.444;2022-12-10T00:41:39;43.50;;;15.82;;
73823;SDS011;62154;54.914;73.444;2022-12-10T00:44:06;65.78;;;22.83;;
73823;SDS011;62154;54.914;73.444;2022-12-10T00:46:33;42.92;;;18.15;;
73823;SDS011;62154;54.914;73.444;2022-12-10T00:49:01;49.58;;;19.15;;
73823;SDS011;62154;54.914;73.444;2022-12-10T00:51:29;64.38;;;29.33;;
73823;SDS011;62154;54.914;73.444;2022-12-10T00:53:57;56.33;;;22.35;;
73823;SDS011;62154;54.914;73.444;2022-12-10T00:56:26;48.90;;;21.30;;
73823;SDS011;62154;54.914;73.444;2022-12-10T00:58:56;51.88;;;25.40;;
73823;SDS011;62154;54.914;73.444;2022-12-10T01:04:03;45.17;;;16.77;;
73823;SDS011;62154;54.914;73.444;2022-12-10T01:06:39;33.80;;;14.57;;
73823;SDS011;62154;54.914;73.444;2022-12-10T01:09:10;36.40;;;15.27;;
73823;SDS011;62154;54.914;73.444;2022-12-10T01:11:40;36.17;;;15.18;;
73823;SDS011;62154;54.914;73.444;2022-12-10T01:14:12;33.17;;;13.48;;
73823;SDS011;62154;54.914;73.444;2022-12-10T01:16:47;30.60;;;13.60;;
73823;SDS011;62154;54.914;73.444;2022-12-10T01:19:16;110.28;;;32.42;;
73823;SDS011;62154;54.914;73.444;2022-12-10T01:21:43;119.95;;;35.22;;
73823;SDS011;62154;54.914;73.444;2022-12-10T01:24:11;75.28;;;21.88;;
73823;SDS011;62154;54.914;73.444;2022-12-10T01:26:38;45.85;;;17.27;;
73823;SDS011;62154;54.914;73.444;2022-12-10T01:29:05;53.45;;;20.20;;
73823;SDS011;62154;54.914;73.444;2022-12-10T01:31:33;50.33;;;19.95;;
73823;SDS011;62154;54.914;73.444;2022-12-10T01:34:03;48.15;;;19.02;;
73823;SDS011;62154;54.914;73.444;2022-12-10T01:36:35;59.38;;;22.88;;
73823;SDS011;62154;54.914;73.444;2022-12-10T01:39:14;48.78;;;18.08;;
73823;SDS011;62154;54.914;73.444;2022-12-10T01:41:44;33.42;;;15.90;;
73823;SDS011;62154;54.914;73.444;2022-12-10T01:46:42;35.47;;;13.38;;
73823;SDS011;62154;54.914;73.444;2022-12-10T01:49:16;34.28;;;12.02;;
73823;SDS011;62154;54.914;73.444;2022-12-10T01:51:46;27.95;;;10.07;;
73823;SDS011;62154;54.914;73.444;2022-12-10T01:54:17;29.08;;;10.20;;
73823;SDS011;62154;54.914;73.444;2022-12-10T01:56:54;22.67;;;9.90;;
73823;SDS011;62154;54.914;73.444;2022-12-10T01:59:26;33.38;;;13.38;;
73823;SDS011;62154;54.914;73.444;2022-12-10T02:07:56;38.47;;;15.55;;
73823;SDS011;62154;54.914;73.444;2022-12-10T02:13:18;119.90;;;37.72;;
73823;SDS011;62154;54.914;73.444;2022-12-10T02:15:59;49.40;;;23.15;;
73823;SDS011;62154;54.914;73.444;2022-12-10T02:21:06;111.30;;;42.63;;
73823;SDS011;62154;54.914;73.444;2022-12-10T02:23:50;211.70;;;74.22;;
73823;SDS011;62154;54.914;73.444;2022-12-10T02:26:33;160.45;;;52.90;;
73823;SDS011;62154;54.914;73.444;2022-12-10T02:29:11;128.68;;;43.47;;
73823;SDS011;62154;54.914;73.444;2022-12-10T02:31:48;122.38;;;46.63;;
73823;SDS011;62154;54.914;73.444;2022-12-10T02:34:20;204.02;;;72.63;;
73823;SDS011;62154;54.914;73.444;2022-12-10T02:36:50;208.40;;;67.55;;
73823;SDS011;62154;54.914;73.444;2022-12-10T02:39:28;145.50;;;48.42;;
73823;SDS011;62154;54.914;73.444;2022-12-10T02:42:10;76.53;;;21.25;;
73823;SDS011;62154;54.914;73.444;2022-12-10T02:44:43;54.83;;;17.15;;
73823;SDS011;62154;54.914;73.444;2022-12-10T02:47:13;65.88;;;18.60;;
73823;SDS011;62154;54.914;73.444;2022-12-10T02:49:50;66.05;;;16.25;;
73823;SDS011;62154;54.914;73.444;2022-12-10T02:52:27;59.67;;;15.95;;
73823;SDS011;62154;54.914;73.444;2022-12-10T02:54:55;48.88;;;14.63;;
73823;SDS011;62154;54.914;73.444;2022-12-10T02:57:35;59.67;;;15.02;;
73823;SDS011;62154;54.914;73.444;2022-12-10T03:00:18;55.65;;;16.23;;
73823;SDS011;62154;54.914;73.444;2022-12-10T03:05:33;66.63;;;19.58;;
73823;SDS011;62154;54.914;73.444;2022-12-10T03:08:52;60.80;;;18.88;;
73823;SDS011;62154;54.914;73.444;2022-12-10T03:11:24;47.83;;;16.50;;
73823;SDS011;62154;54.914;73.444;2022-12-10T03:14:12;44.53;;;13.43;;
73823;SDS011;62154;54.914;73.444;2022-12-10T03:17:01;55.35;;;15.77;;
73823;SDS011;62154;54.914;73.444;2022-12-10T03:19:39;54.08;;;16.65;;
73823;SDS011;62154;54.914;73.444;2022-12-10T03:22:09;75.28;;;17.70;;
73823;SDS011;62154;54.914;73.444;2022-12-10T03:24:41;68.82;;;18.45;;
73823;SDS011;62154;54.914;73.444;2022-12-10T03:27:20;63.17;;;18.20;;
73823;SDS011;62154;54.914;73.444;2022-12-10T03:29:52;56.10;;;18.60;;
73823;SDS011;62154;54.914;73.444;2022-12-10T03:32:24;36.28;;;12.50;;
73823;SDS011;62154;54.914;73.444;2022-12-10T03:35:06;47.47;;;15.27;;
73823;SDS011;62154;54.914;73.444;2022-12-10T03:37:34;51.75;;;16.02;;
73823;SDS011;62154;54.914;73.444;2022-12-10T03:40:03;54.10;;;17.30;;
73823;SDS011;62154;54.914;73.444;2022-12-10T03:42:34;63.15;;;17.13;;
73823;SDS011;62154;54.914;73.444;2022-12-10T03:45:03;43.80;;;13.60;;
73823;SDS011;62154;54.914;73.444;2022-12-10T03:47:30;44.10;;;13.77;;
73823;SDS011;62154;54.914;73.444;2022-12-10T03:49:58;40.63;;;14.27;;
73823;SDS011;62154;54.914;73.444;2022-12-10T03:52:25;59.25;;;18.15;;
73823;SDS011;62154;54.914;73.444;2022-12-10T03:54:53;48.72;;;16.35;;
73823;SDS011;62154;54.914;73.444;2022-12-10T03:57:33;44.67;;;16.30;;
73823;SDS011;62154;54.914;73.444;2022-12-10T04:00:03;39.45;;;14.73;;
73823;SDS011;62154;54.914;73.444;2022-12-10T04:02:48;70.18;;;24.00;;
73823;SDS011;62154;54.914;73.444;2022-12-10T04:05:15;34.28;;;11.50;;
73823;SDS011;62154;54.914;73.444;2022-12-10T04:07:43;22.13;;;10.30;;
73823;SDS011;62154;54.914;73.444;2022-12-10T04:10:20;44.55;;;12.32;;
73823;SDS011;62154;54.914;73.444;2022-12-10T04:12:57;24.73;;;9.40;;
73823;SDS011;62154;54.914;73.444;2022-12-10T04:15:42;43.35;;;14.38;;
73823;SDS011;62154;54.914;73.444;2022-12-10T04:18:38;57.60;;;19.40;;
73823;SDS011;62154;54.914;73.444;2022-12-10T04:21:11;57.75;;;17.95;;
73823;SDS011;62154;54.914;73.444;2022-12-10T04:23:59;50.58;;;16.85;;
73823;SDS011;62154;54.914;73.444;2022-12-10T04:26:55;48.97;;;15.30;;
73823;SDS011;62154;54.914;73.444;2022-12-10T04:29:27;47.65;;;17.13;;
73823;SDS011;62154;54.914;73.444;2022-12-10T04:32:01;69.43;;;20.73;;
73823;SDS011;62154;54.914;73.444;2022-12-10T04:34:29;53.28;;;17.65;;
73823;SDS011;62154;54.914;73.444;2022-12-10T04:37:06;54.45;;;19.83;;
73823;SDS011;62154;54.914;73.444;2022-12-10T04:39:34;30.85;;;10.77;;
73823;SDS011;62154;54.914;73.444;2022-12-10T04:42:01;37.72;;;13.50;;
73823;SDS011;62154;54.914;73.444;2022-12-10T04:44:29;39.00;;;13.63;;
73823;SDS011;62154;54.914;73.444;2022-12-10T04:47:02;36.65;;;13.40;;
73823;SDS011;62154;54.914;73.444;2022-12-10T04:49:32;23.83;;;10.00;;
73823;SDS011;62154;54.914;73.444;2022-12-10T04:51:59;41.25;;;13.15;;
73823;SDS011;62154;54.914;73.444;2022-12-10T04:54:27;32.38;;;13.05;;
73823;SDS011;62154;54.914;73.444;2022-12-10T04:56:55;52.28;;;15.98;;
73823;SDS011;62154;54.914;73.444;2022-12-10T04:59:22;69.18;;;19.80;;
73823;SDS011;62154;54.914;73.444;2022-12-10T05:01:50;64.55;;;18.85;;
73823;SDS011;62154;54.914;73.444;2022-12-10T05:04:18;35.55;;;11.90;;
73823;SDS011;62154;54.914;73.444;2022-12-10T05:06:47;35.83;;;13.35;;
73823;SDS011;62154;54.914;73.444;2022-12-10T05:09:15;25.45;;;9.65;;
73823;SDS011;62154;54.914;73.444;2022-12-10T05:11:46;32.45;;;9.38;;
73823;SDS011;62154;54.914;73.444;2022-12-10T05:14:14;30.95;;;11.25;;
73823;SDS011;62154;54.914;73.444;2022-12-10T05:16:42;50.92;;;18.73;;
73823;SDS011;62154;54.914;73.444;2022-12-10T05:19:20;38.28;;;14.88;;
73823;SDS011;62154;54.914;73.444;2022-12-10T05:21:50;18.85;;;7.65;;
73823;SDS011;62154;54.914;73.444;2022-12-10T05:24:40;21.83;;;9.15;;
73823;SDS011;62154;54.914;73.444;2022-12-10T05:27:08;35.38;;;11.25;;
73823;SDS011;62154;54.914;73.444;2022-12-10T05:29:35;37.65;;;12.18;;
73823;SDS011;62154;54.914;73.444;2022-12-10T05:32:02;24.13;;;9.50;;
73823;SDS011;62154;54.914;73.444;2022-12-10T05:34:30;41.03;;;12.05;;
73823;SDS011;62154;54.914;73.444;2022-12-10T05:36:58;46.38;;;15.93;;
73823;SDS011;62154;54.914;73.444;2022-12-10T05:39:31;66.03;;;21.77;;
73823;SDS011;62154;54.914;73.444;2022-12-10T05:41:58;61.63;;;20.70;;
73823;SDS011;62154;54.914;73.444;2022-12-10T05:44:25;62.67;;;21.95;;
73823;SDS011;62154;54.914;73.444;2022-12-10T05:46:53;65.45;;;22.80;;
73823;SDS011;62154;54.914;73.444;2022-12-10T05:49:20;55.58;;;20.70;;
73823;SDS011;62154;54.914;73.444;2022-12-10T05:51:47;35.90;;;12.93;;
73823;SDS011;62154;54.914;73.444;2022-12-10T05:54:14;34.85;;;15.30;;
73823;SDS011;62154;54.914;73.444;2022-12-10T05:56:50;42.50;;;18.48;;
73823;SDS011;62154;54.914;73.444;2022-12-10T05:59:19;25.58;;;11.57;;
73823;SDS011;62154;54.914;73.444;2022-12-10T06:01:51;24.38;;;8.93;;
73823;SDS011;62154;54.914;73.444;2022-12-10T06:04:19;21.02;;;8.25;;
73823;SDS011;62154;54.914;73.444;2022-12-10T06:06:46;34.50;;;13.02;;
73823;SDS011;62154;54.914;73.444;2022-12-10T06:09:14;28.60;;;12.63;;
73823;SDS011;62154;54.914;73.444;2022-12-10T06:11:44;30.33;;;10.30;;
73823;SDS011;62154;54.914;73.444;2022-12-10T06:14:14;37.20;;;16.33;;
73823;SDS011;62154;54.914;73.444;2022-12-10T06:16:41;30.88;;;11.70;;
73823;SDS011;62154;54.914;73.444;2022-12-10T06:19:09;26.55;;;11.13;;
73823;SDS011;62154;54.914;73.444;2022-12-10T06:21:36;34.95;;;14.05;;
73823;SDS011;62154;54.914;73.444;2022-12-10T06:24:04;49.63;;;16.63;;
73823;SDS011;62154;54.914;73.444;2022-12-10T06:26:37;63.63;;;17.50;;
73823;SDS011;62154;54.914;73.444;2022-12-10T06:29:04;34.42;;;13.32;;
73823;SDS011;62154;54.914;73.444;2022-12-10T06:31:31;35.60;;;11.68;;
73823;SDS011;62154;54.914;73.444;2022-12-10T06:33:58;38.47;;;15.95;;
73823;SDS011;62154;54.914;73.444;2022-12-10T06:36:25;39.95;;;14.25;;
73823;SDS011;62154;54.914;73.444;2022-12-10T06:38:53;40.67;;;15.60;;
73823;SDS011;62154;54.914;73.444;2022-12-10T06:41:20;30.33;;;13.25;;
73823;SDS011;62154;54.914;73.444;2022-12-10T06:43:51;24.55;;;10.57;;
73823;SDS011;62154;54.914;73.444;2022-12-10T06:46:19;28.73;;;12.20;;
73823;SDS011;62154;54.914;73.444;2022-12-10T06:48:47;27.20;;;11.55;;
73823;SDS011;62154;54.914;73.444;2022-12-10T06:51:17;32.33;;;12.75;;
73823;SDS011;62154;54.914;73.444;2022-12-10T06:53:46;30.58;;;13.48;;
73823;SDS011;62154;54.914;73.444;2022-12-10T06:56:16;30.83;;;12.48;;
73823;SDS011;62154;54.914;73.444;2022-12-10T06:58:47;52.53;;;18.23;;
73823;SDS011;62154;54.914;73.444;2022-12-10T07:01:16;53.70;;;18.80;;
73823;SDS011;62154;54.914;73.444;2022-12-10T07:03:49;48.55;;;17.50;;
73823;SDS011;62154;54.914;73.444;2022-12-10T07:06:17;49.63;;;16.88;;
73823;SDS011;62154;54.914;73.444;2022-12-10T07:08:46;48.03;;;18.75;;
73823;SDS011;62154;54.914;73.444;2022-12-10T07:11:15;42.28;;;17.58;;
73823;SDS011;62154;54.914;73.444;2022-12-10T07:13:51;51.28;;;19.92;;
73823;SDS011;62154;54.914;73.444;2022-12-10T07:16:22;46.97;;;17.45;;
73823;SDS011;62154;54.914;73.444;2022-12-10T07:18:52;42.63;;;16.38;;
73823;SDS011;62154;54.914;73.444;2022-12-10T07:21:31;28.65;;;11.27;;
73823;SDS011;62154;54.914;73.444;2022-12-10T07:24:01;23.85;;;9.35;;
73823;SDS011;62154;54.914;73.444;2022-12-10T07:26:32;31.60;;;11.50;;
73823;SDS011;62154;54.914;73.444;2022-12-10T07:29:03;39.92;;;15.77;;
73823;SDS011;62154;54.914;73.444;2022-12-10T07:31:33;43.95;;;16.48;;
73823;SDS011;62154;54.914;73.444;2022-12-10T07:34:01;38.63;;;13.55;;
73823;SDS011;62154;54.914;73.444;2022-12-10T07:36:28;29.08;;;12.40;;
73823;SDS011;62154;54.914;73.444;2022-12-10T07:38:55;30.52;;;10.65;;
73823;SDS011;62154;54.914;73.444;2022-12-10T07:41:23;33.10;;;12.35;;
73823;SDS011;62154;54.914;73.444;2022-12-10T07:43:51;35.03;;;13.48;;
73823;SDS011;62154;54.914;73.444;2022-12-10T07:46:29;37.63;;;13.60;;
73823;SDS011;62154;54.914;73.444;2022-12-10T07:48:59;31.80;;;11.77;;
73823;SDS011;62154;54.914;73.444;2022-12-10T07:51:28;36.90;;;14.77;;
73823;SDS011;62154;54.914;73.444;2022-12-10T07:53:56;35.78;;;12.57;;
73823;SDS011;62154;54.914;73.444;2022-12-10T07:56:26;26.13;;;9.95;;
73823;SDS011;62154;54.914;73.444;2022-12-10T07:58:53;22.25;;;10.50;;
73823;SDS011;62154;54.914;73.444;2022-12-10T08:01:22;25.95;;;9.60;;
73823;SDS011;62154;54.914;73.444;2022-12-10T08:03:52;25.80;;;9.57;;
73823;SDS011;62154;54.914;73.444;2022-12-10T08:06:23;29.50;;;9.70;;
73823;SDS011;62154;54.914;73.444;2022-12-10T08:08:51;19.33;;;9.10;;
73823;SDS011;62154;54.914;73.444;2022-12-10T08:11:18;23.70;;;11.45;;
73823;SDS011;62154;54.914;73.444;2022-12-10T08:13:47;22.50;;;10.27;;
73823;SDS011;62154;54.914;73.444;2022-12-10T08:16:16;26.33;;;8.57;;
73823;SDS011;62154;54.914;73.444;2022-12-10T08:18:57;28.33;;;9.88;;
73823;SDS011;62154;54.914;73.444;2022-12-10T08:21:27;27.33;;;10.20;;
73823;SDS011;62154;54.914;73.444;2022-12-10T08:23:56;24.40;;;10.68;;
73823;SDS011;62154;54.914;73.444;2022-12-10T08:26:25;22.73;;;10.27;;
73823;SDS011;62154;54.914;73.444;2022-12-10T08:28:55;36.05;;;11.05;;
73823;SDS011;62154;54.914;73.444;2022-12-10T08:31:24;18.23;;;8.60;;
73823;SDS011;62154;54.914;73.444;2022-12-10T08:33:55;30.42;;;13.50;;
73823;SDS011;62154;54.914;73.444;2022-12-10T08:36:22;31.35;;;13.35;;
73823;SDS011;62154;54.914;73.444;2022-12-10T08:39:00;32.05;;;13.95;;
73823;SDS011;62154;54.914;73.444;2022-12-10T08:41:27;32.63;;;12.93;;
73823;SDS011;62154;54.914;73.444;2022-12-10T08:43:55;29.88;;;12.07;;
73823;SDS011;62154;54.914;73.444;2022-12-10T08:46:27;23.10;;;8.65;;
73823;SDS011;62154;54.914;73.444;2022-12-10T08:48:59;24.20;;;10.27;;
73823;SDS011;62154;54.914;73.444;2022-12-10T08:51:40;27.27;;;9.80;;
73823;SDS011;62154;54.914;73.444;2022-12-10T08:54:07;27.95;;;11.30;;
73823;SDS011;62154;54.914;73.444;2022-12-10T08:56:35;28.58;;;8.82;;
73823;SDS011;62154;54.914;73.444;2022-12-10T08:59:02;18.23;;;6.32;;
73823;SDS011;62154;54.914;73.444;2022-12-10T09:01:29;23.00;;;8.68;;
73823;SDS011;62154;54.914;73.444;2022-12-10T09:03:58;21.00;;;9.05;;
73823;SDS011;62154;54.914;73.444;2022-12-10T09:06:27;22.27;;;9.18;;
73823;SDS011;62154;54.914;73.444;2022-12-10T09:09:00;18.42;;;8.77;;
73823;SDS011;62154;54.914;73.444;2022-12-10T09:11:39;43.42;;;12.88;;
73823;SDS011;62154;54.914;73.444;2022-12-10T09:14:08;24.33;;;9.13;;
73823;SDS011;62154;54.914;73.444;2022-12-10T09:16:35;36.25;;;13.05;;
73823;SDS011;62154;54.914;73.444;2022-12-10T09:19:10;27.83;;;13.45;;
73823;SDS011;62154;54.914;73.444;2022-12-10T09:21:37;36.45;;;14.75;;
73823;SDS011;62154;54.914;73.444;2022-12-10T09:24:05;31.73;;;12.90;;
73823;SDS011;62154;54.914;73.444;2022-12-10T09:26:33;38.83;;;13.45;;
73823;SDS011;62154;54.914;73.444;2022-12-10T09:29:11;49.85;;;19.05;;
73823;SDS011;62154;54.914;73.444;2022-12-10T09:31:39;23.20;;;9.75;;
73823;SDS011;62154;54.914;73.444;2022-12-10T09:34:07;20.40;;;9.57;;
73823;SDS011;62154;54.914;73.444;2022-12-10T09:36:34;16.08;;;7.13;;
73823;SDS011;62154;54.914;73.444;2022-12-10T09:39:02;25.17;;;10.95;;
73823;SDS011;62154;54.914;73.444;2022-12-10T09:41:49;50.72;;;19.25;;
73823;SDS011;62154;54.914;73.444;2022-12-10T09:47:16;29.35;;;11.32;;
73823;SDS011;62154;54.914;73.444;2022-12-10T09:52:26;31.95;;;10.93;;
73823;SDS011;62154;54.914;73.444;2022-12-10T09:55:08;25.88;;;12.13;;
73823;SDS011;62154;54.914;73.444;2022-12-10T09:57:51;30.13;;;11.63;;
73823;SDS011;62154;54.914;73.444;2022-12-10T10:00:33;24.98;;;9.90;;
73823;SDS011;62154;54.914;73.444;2022-12-10T10:03:14;31.00;;;12.65;;
73823;SDS011;62154;54.914;73.444;2022-12-10T10:05:48;35.42;;;12.18;;
73823;SDS011;62154;54.914;73.444;2022-12-10T10:08:25;27.75;;;12.20;;
73823;SDS011;62154;54.914;73.444;2022-12-10T10:11:08;31.10;;;12.43;;
73823;SDS011;62154;54.914;73.444;2022-12-10T10:13:45;36.08;;;14.23;;
73823;SDS011;62154;54.914;73.444;2022-12-10T10:16:48;44.13;;;19.13;;
73823;SDS011;62154;54.914;73.444;2022-12-10T10:19:26;37.30;;;16.75;;
73823;SDS011;62154;54.914;73.444;2022-12-10T10:21:57;38.80;;;18.88;;
73823;SDS011;62154;54.914;73.444;2022-12-10T10:24:27;43.65;;;18.48;;
73823;SDS011;62154;54.914;73.444;2022-12-10T10:29:45;52.33;;;20.92;;
73823;SDS011;62154;54.914;73.444;2022-12-10T10:32:21;48.40;;;21.60;;
73823;SDS011;62154;54.914;73.444;2022-12-10T10:34:55;54.35;;;23.05;;
73823;SDS011;62154;54.914;73.444;2022-12-10T10:37:26;81.65;;;30.13;;
73823;SDS011;62154;54.914;73.444;2022-12-10T10:39:59;80.60;;;31.42;;
73823;SDS011;62154;54.914;73.444;2022-12-10T10:42:39;81.25;;;30.58;;
73823;SDS011;62154;54.914;73.444;2022-12-10T10:45:30;88.85;;;35.10;;
73823;SDS011;62154;54.914;73.444;2022-12-10T10:48:32;98.22;;;44.35;;
73823;SDS011;62154;54.914;73.444;2022-12-10T10:51:07;168.32;;;64.32;;
73823;SDS011;62154;54.914;73.444;2022-12-10T10:56:06;109.70;;;46.53;;
73823;SDS011;62154;54.914;73.444;2022-12-10T11:01:25;90.20;;;32.58;;
73823;SDS011;62154;54.914;73.444;2022-12-10T11:04:29;89.85;;;35.25;;
73823;SDS011;62154;54.914;73.444;2022-12-10T11:07:39;79.15;;;33.33;;
73823;SDS011;62154;54.914;73.444;2022-12-10T11:10:19;145.65;;;61.95;;
73823;SDS011;62154;54.914;73.444;2022-12-10T11:13:05;178.05;;;67.28;;
73823;SDS011;62154;54.914;73.444;2022-12-10T11:15:35;90.07;;;34.65;;
73823;SDS011;62154;54.914;73.444;2022-12-10T11:18:31;101.68;;;44.13;;
73823;SDS011;62154;54.914;73.444;2022-12-10T11:21:23;125.18;;;53.95;;
73823;SDS011;62154;54.914;73.444;2022-12-10T11:23:53;140.63;;;59.65;;
73823;SDS011;62154;54.914;73.444;2022-12-10T11:35:26;106.03;;;38.67;;
73823;SDS011;62154;54.914;73.444;2022-12-10T11:40:58;148.23;;;60.10;;
73823;SDS011;62154;54.914;73.444;2022-12-10T11:44:10;177.73;;;78.78;;
73823;SDS011;62154;54.914;73.444;2022-12-10T11:46:55;162.38;;;61.75;;
73823;SDS011;62154;54.914;73.444;2022-12-10T11:52:10;169.60;;;63.65;;
73823;SDS011;62154;54.914;73.444;2022-12-10T11:54:52;121.60;;;46.50;;
73823;SDS011;62154;54.914;73.444;2022-12-10T11:57:43;93.97;;;35.95;;
73823;SDS011;62154;54.914;73.444;2022-12-10T12:00:20;85.00;;;33.22;;
73823;SDS011;62154;54.914;73.444;2022-12-10T12:03:07;106.00;;;38.20;;
73823;SDS011;62154;54.914;73.444;2022-12-10T12:08:55;144.07;;;52.10;;
73823;SDS011;62154;54.914;73.444;2022-12-10T12:11:47;102.70;;;39.15;;
73823;SDS011;62154;54.914;73.444;2022-12-10T12:14:40;94.28;;;38.65;;
73823;SDS011;62154;54.914;73.444;2022-12-10T12:20:14;77.72;;;28.77;;
73823;SDS011;62154;54.914;73.444;2022-12-10T12:22:53;75.97;;;28.77;;
73823;SDS011;62154;54.914;73.444;2022-12-10T12:25:42;80.25;;;31.90;;
73823;SDS011;62154;54.914;73.444;2022-12-10T12:28:26;75.22;;;32.88;;
73823;SDS011;62154;54.914;73.444;2022-12-10T12:31:08;93.70;;;41.30;;
73823;SDS011;62154;54.914;73.444;2022-12-10T12:36:24;94.95;;;38.63;;
73823;SDS011;62154;54.914;73.444;2022-12-10T12:39:00;214.35;;;71.03;;
73823;SDS011;62154;54.914;73.444;2022-12-10T12:41:55;110.40;;;36.45;;
73823;SDS011;62154;54.914;73.444;2022-12-10T12:45:08;223.02;;;70.05;;
73823;SDS011;62154;54.914;73.444;2022-12-10T12:53:26;93.18;;;32.58;;
73823;SDS011;62154;54.914;73.444;2022-12-10T12:58:40;123.70;;;42.93;;
73823;SDS011;62154;54.914;73.444;2022-12-10T13:04:25;120.80;;;42.35;;
73823;SDS011;62154;54.914;73.444;2022-12-10T13:09:44;99.13;;;38.40;;
73823;SDS011;62154;54.914;73.444;2022-12-10T13:12:28;96.03;;;37.38;;
73823;SDS011;62154;54.914;73.444;2022-12-10T13:15:13;72.35;;;29.05;;
73823;SDS011;62154;54.914;73.444;2022-12-10T13:20:33;71.28;;;26.77;;
73823;SDS011;62154;54.914;73.444;2022-12-10T13:23:03;50.67;;;20.52;;
73823;SDS011;62154;54.914;73.444;2022-12-10T13:26:00;46.85;;;18.83;;
73823;SDS011;62154;54.914;73.444;2022-12-10T13:41:31;24.60;;;8.60;;
73823;SDS011;62154;54.914;73.444;2022-12-10T13:44:47;26.38;;;10.30;;
73823;SDS011;62154;54.914;73.444;2022-12-10T13:47:25;23.20;;;9.93;;
73823;SDS011;62154;54.914;73.444;2022-12-10T13:50:06;25.80;;;9.98;;
73823;SDS011;62154;54.914;73.444;2022-12-10T14:04:01;46.83;;;18.75;;
73823;SDS011;62154;54.914;73.444;2022-12-10T14:06:50;54.67;;;17.85;;
73823;SDS011;62154;54.914;73.444;2022-12-10T14:09:23;49.47;;;17.40;;
73823;SDS011;62154;54.914;73.444;2022-12-10T14:12:37;49.20;;;18.17;;
73823;SDS011;62154;54.914;73.444;2022-12-10T14:14:55;59.92;;;22.50;;
73823;SDS011;62154;54.914;73.444;2022-12-10T14:17:31;67.28;;;24.92;;
73823;SDS011;62154;54.914;73.444;2022-12-10T14:20:18;69.13;;;24.98;;
73823;SDS011;62154;54.914;73.444;2022-12-10T14:22:56;80.63;;;28.60;;
73823;SDS011;62154;54.914;73.444;2022-12-10T14:25:48;89.53;;;33.13;;
73823;SDS011;62154;54.914;73.444;2022-12-10T14:28:22;77.10;;;30.95;;
73823;SDS011;62154;54.914;73.444;2022-12-10T14:30:51;70.68;;;28.95;;
73823;SDS011;62154;54.914;73.444;2022-12-10T14:33:19;112.55;;;35.83;;
73823;SDS011;62154;54.914;73.444;2022-12-10T14:35:49;134.25;;;43.53;;
73823;SDS011;62154;54.914;73.444;2022-12-10T14:38:26;104.45;;;33.50;;
73823;SDS011;62154;54.914;73.444;2022-12-10T14:40:57;62.80;;;26.25;;
73823;SDS011;62154;54.914;73.444;2022-12-10T14:43:36;83.57;;;28.80;;
73823;SDS011;62154;54.914;73.444;2022-12-10T14:46:18;81.93;;;30.40;;
73823;SDS011;62154;54.914;73.444;2022-12-10T14:49:06;70.60;;;29.27;;
73823;SDS011;62154;54.914;73.444;2022-12-10T14:51:44;213.00;;;69.25;;
73823;SDS011;62154;54.914;73.444;2022-12-10T14:54:26;379.83;;;110.63;;
73823;SDS011;62154;54.914;73.444;2022-12-10T14:56:55;288.17;;;86.80;;
73823;SDS011;62154;54.914;73.444;2022-12-10T14:59:25;517.38;;;156.48;;
73823;SDS011;62154;54.914;73.444;2022-12-10T15:01:57;292.65;;;83.65;;
73823;SDS011;62154;54.914;73.444;2022-12-10T15:04:29;536.92;;;162.18;;
73823;SDS011;62154;54.914;73.444;2022-12-10T15:07:22;360.35;;;109.47;;
73823;SDS011;62154;54.914;73.444;2022-12-10T15:09:52;310.20;;;97.70;;
73823;SDS011;62154;54.914;73.444;2022-12-10T15:12:28;515.20;;;157.13;;
73823;SDS011;62154;54.914;73.444;2022-12-10T15:15:14;129.32;;;46.30;;
73823;SDS011;62154;54.914;73.444;2022-12-10T15:18:14;135.00;;;49.53;;
73823;SDS011;62154;54.914;73.444;2022-12-10T15:23:19;329.85;;;92.18;;
73823;SDS011;62154;54.914;73.444;2022-12-10T15:26:00;117.90;;;40.85;;
73823;SDS011;62154;54.914;73.444;2022-12-10T15:28:40;157.60;;;47.92;;
73823;SDS011;62154;54.914;73.444;2022-12-10T15:31:12;255.98;;;77.85;;
73823;SDS011;62154;54.914;73.444;2022-12-10T15:33:58;215.23;;;67.65;;
73823;SDS011;62154;54.914;73.444;2022-12-10T15:36:48;216.13;;;79.60;;
73823;SDS011;62154;54.914;73.444;2022-12-10T15:39:23;233.07;;;75.63;;
73823;SDS011;62154;54.914;73.444;2022-12-10T15:41:54;177.75;;;61.97;;
73823;SDS011;62154;54.914;73.444;2022-12-10T15:47:19;188.98;;;78.15;;
73823;SDS011;62154;54.914;73.444;2022-12-10T15:49:55;147.57;;;63.80;;
73823;SDS011;62154;54.914;73.444;2022-12-10T15:52:23;126.43;;;48.03;;
73823;SDS011;62154;54.914;73.444;2022-12-10T15:54:53;130.60;;;49.08;;
73823;SDS011;62154;54.914;73.444;2022-12-10T15:57:25;131.43;;;51.95;;
73823;SDS011;62154;54.914;73.444;2022-12-10T16:00:05;129.10;;;47.90;;
73823;SDS011;62154;54.914;73.444;2022-12-10T16:02:40;136.95;;;51.13;;
73823;SDS011;62154;54.914;73.444;2022-12-10T16:05:24;149.07;;;54.50;;
73823;SDS011;62154;54.914;73.444;2022-12-10T16:07:53;157.30;;;57.75;;
73823;SDS011;62154;54.914;73.444;2022-12-10T16:10:28;123.70;;;45.50;;
73823;SDS011;62154;54.914;73.444;2022-12-10T16:12:57;145.38;;;55.45;;
73823;SDS011;62154;54.914;73.444;2022-12-10T16:15:41;159.75;;;58.47;;
73823;SDS011;62154;54.914;73.444;2022-12-10T16:18:14;264.08;;;94.63;;
73823;SDS011;62154;54.914;73.444;2022-12-10T16:20:43;155.75;;;54.92;;
73823;SDS011;62154;54.914;73.444;2022-12-10T16:23:13;175.38;;;63.00;;
73823;SDS011;62154;54.914;73.444;2022-12-10T16:25:42;119.43;;;43.88;;
73823;SDS011;62154;54.914;73.444;2022-12-10T16:28:21;71.43;;;27.83;;
73823;SDS011;62154;54.914;73.444;2022-12-10T16:30:50;50.25;;;20.98;;
73823;SDS011;62154;54.914;73.444;2022-12-10T16:33:26;51.90;;;21.73;;